Data for 10/05/2008

Time Sea-Level Adjusted Pressure Absolute Pressure Temperature Relative Humidity Dew Point   
(mb) (inHg) (mb) (inHg) (C) (F) (%) (C) (F)
00:05 1008 29.77 837 24.72 8.6 47.6 79 5.2 41.3
00:10 1008 29.77 837 24.72 8.7 47.7 76 4.8 40.7
00:15 1008 29.77 837 24.72 9.1 48.4 74 4.8 40.6
00:20 1008 29.77 837 24.72 9.4 48.9 72 4.6 40.3
00:25 1008 29.77 837 24.72 9.7 49.5 74 5.3 41.5
00:30 1008 29.77 838 24.75 9.8 49.6 76 5.7 42.3
00:35 1009 29.8 838 24.75 9.5 49.1 77 5.7 42.2
00:40 1009 29.8 838 24.75 9.3 48.8 79 5.9 42.5
00:45 1009 29.8 838 24.75 9.4 48.9 79 6 42.8
00:50 1009 29.8 838 24.75 9.4 49 80 6.2 43.2
00:55 1009 29.8 838 24.75 9.4 48.9 82 6.5 43.8
01:00 1009 29.8 838 24.75 9.3 48.7 83 6.6 43.8
01:05 1009 29.8 838 24.75 9.2 48.5 84 6.6 43.9
01:10 1009 29.8 838 24.75 9.1 48.3 85 6.7 44
01:15 1009 29.8 838 24.75 8.8 47.9 87 6.8 44.2
01:20 1009 29.8 838 24.75 8.7 47.6 87 6.7 44.1
01:25 1009 29.8 838 24.75 8.7 47.6 88 6.8 44.2
01:30 1009 29.8 838 24.75 8.4 47.2 90 6.9 44.5
01:35 1009 29.8 838 24.75 8.3 47 89 6.7 44.1
01:40 1009 29.8 838 24.75 8.3 46.9 90 6.7 44
01:45 1009 29.8 838 24.75 8.4 47.1 89 6.7 44.1
01:50 1009 29.8 838 24.75 8.4 47.2 89 6.8 44.2
01:55 1009 29.8 838 24.75 8.5 47.2 90 6.8 44.3
02:00 1009 29.8 838 24.75 8.5 47.4 90 7 44.6
02:05 1009 29.8 838 24.75 8.6 47.4 90 6.9 44.5
02:10 1009 29.8 838 24.75 8.6 47.5 89 6.9 44.5
02:15 1009 29.8 838 24.75 8.5 47.4 88 6.7 44.1
02:20 1009 29.8 839 24.78 8.6 47.4 89 6.8 44.2
02:25 1009 29.8 839 24.78 8.6 47.4 87 6.5 43.6
02:30 1009 29.8 839 24.78 8.5 47.4 87 6.4 43.6
02:35 1009 29.8 839 24.78 8.7 47.7 88 6.9 44.4
02:40 1010 29.83 839 24.78 8.5 47.3 90 6.9 44.5
02:45 1010 29.83 839 24.78 8.4 47.1 89 6.7 44.1
02:50 1010 29.83 839 24.78 8.6 47.5 89 6.9 44.5
02:55 1010 29.83 839 24.78 8.5 47.3 90 7 44.5
03:00 1010 29.83 839 24.78 8.5 47.3 90 6.9 44.4
03:05 1010 29.83 839 24.78 8.6 47.5 89 6.9 44.4
03:10 1010 29.83 839 24.78 8.6 47.5 88 6.7 44
03:15 1010 29.83 839 24.78 8.9 48 87 6.8 44.3
03:20 1010 29.83 839 24.78 9.1 48.4 86 6.9 44.5
03:25 1010 29.83 839 24.78 9.2 48.6 84 6.7 44
03:30 1010 29.83 839 24.78 9.3 48.8 85 6.9 44.4
03:35 1010 29.83 839 24.78 9.3 48.7 82 6.4 43.6
03:40 1010 29.83 839 24.78 9.2 48.6 83 6.5 43.7
03:45 1010 29.83 839 24.78 9.1 48.3 83 6.3 43.3
03:50 1010 29.83 839 24.78 8.9 48.1 83 6.2 43.2
03:55 1010 29.83 839 24.78 8.8 47.8 83 6.1 42.9
04:00 1010 29.83 839 24.78 8.6 47.5 84 6 42.9
04:05 1010 29.83 839 24.78 8.5 47.2 85 6 42.9
04:10 1010 29.83 839 24.78 8.4 47.1 85 6.1 43
04:15 1010 29.83 839 24.78 8.3 46.9 85 5.9 42.7
04:20 1010 29.83 839 24.78 8.2 46.8 86 5.9 42.7
04:25 1010 29.83 839 24.78 8.2 46.7 85 5.8 42.5
04:30 1010 29.83 839 24.78 8.2 46.7 85 5.9 42.6
04:35 1010 29.83 839 24.78 8.1 46.7 86 5.9 42.6
04:40 1010 29.83 839 24.78 8.1 46.5 86 6 42.7
04:45 1010 29.83 839 24.78 8.1 46.5 86 5.9 42.6
04:50 1010 29.83 839 24.78 8.1 46.6 85 5.8 42.5
04:55 1010 29.83 839 24.78 8.2 46.7 85 5.8 42.4
05:00 1010 29.83 840 24.81 8.2 46.8 85 5.9 42.6
05:05 1010 29.83 839 24.78 8.2 46.7 86 5.9 42.7
05:10 1010 29.83 840 24.81 7.9 46.2 87 5.8 42.5
05:15 1010 29.83 840 24.81 7.8 46 87 5.7 42.3
05:20 1011 29.85 840 24.81 7.8 46.1 87 5.8 42.4
05:25 1011 29.85 840 24.81 7.8 46 87 5.7 42.3
05:30 1011 29.85 840 24.81 7.9 46.1 86 5.6 42.2
05:35 1011 29.85 840 24.81 7.9 46.1 86 5.7 42.3
05:40 1011 29.85 840 24.81 7.9 46.2 86 5.7 42.3
05:45 1011 29.85 840 24.81 7.9 46.1 87 5.8 42.4
05:50 1011 29.85 840 24.81 7.8 46 85 5.4 41.7
05:55 1011 29.85 840 24.81 7.8 46.1 84 5.3 41.6
06:00 1011 29.85 840 24.81 7.9 46.2 85 5.6 42.1
06:05 1011 29.85 840 24.81 7.8 46 86 5.7 42.2
06:10 1011 29.85 840 24.81 7.7 45.9 87 5.7 42.3
06:15 1011 29.85 840 24.81 7.6 45.8 88 5.8 42.4
06:20 1011 29.85 840 24.81 7.6 45.7 88 5.7 42.3
06:25 1011 29.85 840 24.81 7.7 45.8 87 5.6 42.1
06:30 1011 29.85 840 24.81 7.7 45.8 86 5.4 41.8
06:35 1011 29.85 840 24.81 7.7 45.9 86 5.6 42
06:40 1011 29.85 840 24.81 7.7 45.9 86 5.5 41.9
06:45 1011 29.85 840 24.81 7.7 45.8 85 5.3 41.5
06:50 1011 29.85 840 24.81 7.8 46 85 5.5 41.8
06:55 1011 29.85 840 24.81 7.8 46 85 5.5 41.9
07:00 1011 29.85 840 24.81 7.8 46.1 84 5.4 41.7
07:05 1011 29.85 840 24.81 7.9 46.3 83 5.1 41.3
07:10 1011 29.85 840 24.81 8 46.4 83 5.3 41.5
07:15 1011 29.85 840 24.81 8 46.4 83 5.3 41.5
07:20 1011 29.85 840 24.81 7.9 46.3 83 5.2 41.3
07:25 1011 29.85 840 24.81 7.9 46.3 82 5 41.1
07:30 1011 29.85 840 24.81 8.1 46.5 80 4.9 40.8
07:35 1011 29.85 840 24.81 8.2 46.7 79 4.7 40.5
07:40 1011 29.85 840 24.81 8.2 46.8 79 4.8 40.6
07:45 1011 29.85 840 24.81 8.1 46.6 81 5 41.1
07:50 1011 29.85 840 24.81 8 46.4 81 4.9 40.8
07:55 1011 29.85 840 24.81 7.9 46.3 81 4.9 40.9
08:00 1011 29.85 840 24.81 7.9 46.1 82 4.9 40.9
08:05 1011 29.85 840 24.81 7.8 46 81 4.8 40.7
08:10 1011 29.85 840 24.81 7.8 46.1 82 5 41
08:15 1011 29.85 840 24.81 7.9 46.2 82 5.1 41.1
08:20 1011 29.85 840 24.81 7.9 46.1 83 5.1 41.2
08:25 1011 29.85 841 24.83 7.9 46.2 84 5.4 41.7
08:30 1011 29.85 841 24.83 8.2 46.8 82 5.3 41.6
08:35 1011 29.85 841 24.83 9 48.2 80 5.7 42.3
08:40 1011 29.85 841 24.83 8.8 47.8 82 5.8 42.5
08:45 1012 29.88 841 24.83 8.6 47.4 82 5.8 42.4
08:50 1012 29.88 841 24.83 8.9 48 80 5.7 42.3
08:55 1012 29.88 841 24.83 9 48.1 81 5.9 42.6
09:00 1012 29.88 841 24.83 8.7 47.7 82 5.8 42.5
09:05 1012 29.88 841 24.83 8.4 47 84 5.8 42.4
09:10 1012 29.88 841 24.83 8 46.3 85 5.7 42.2
09:15 1012 29.88 841 24.83 8 46.4 85 5.6 42.2
09:20 1012 29.88 841 24.83 7.8 46.1 86 5.6 42.1
09:25 1012 29.88 841 24.83 8 46.5 85 5.6 42.1
09:30 1012 29.88 841 24.83 8.3 47 83 5.6 42
09:35 1012 29.88 841 24.83 8.5 47.3 82 5.6 42.1
09:40 1012 29.88 841 24.83 8.5 47.2 83 5.7 42.2
09:45 1012 29.88 841 24.83 8.7 47.7 81 5.7 42.2
09:50 1012 29.88 841 24.83 9.2 48.5 78 5.5 41.9
09:55 1012 29.88 841 24.83 9.6 49.2 76 5.6 42.1
10:00 1012 29.88 841 24.83 9.7 49.4 74 5.4 41.7
10:05 1012 29.88 841 24.83 9.8 49.6 73 5.2 41.4
10:10 1012 29.88 841 24.83 10 50 75 5.8 42.5
10:15 1012 29.88 841 24.83 10 50.1 73 5.5 41.8
10:20 1012 29.88 841 24.83 10.2 50.3 65 4 39.2
10:25 1012 29.88 841 24.83 10.6 51 65 4.3 39.8
10:30 1012 29.88 841 24.83 10.1 50.1 65 3.9 39.1
10:35 1012 29.88 841 24.83 9.8 49.7 65 3.7 38.7
10:40 1012 29.88 841 24.83 10.2 50.4 63 3.5 38.3
10:45 1012 29.88 841 24.83 10.6 51 62 3.6 38.5
10:50 1012 29.88 841 24.83 10.6 51.1 63 3.8 38.9
10:55 1012 29.88 841 24.83 10.5 50.9 63 3.8 38.8
11:00 1012 29.88 841 24.83 10.4 50.8 63 3.7 38.7
11:05 1012 29.88 841 24.83 10.3 50.5 64 3.8 38.9
11:10 1012 29.88 841 24.83 10.5 50.8 64 3.9 39.1
11:15 1012 29.88 841 24.83 10.5 50.9 66 4.5 40
11:20 1012 29.88 841 24.83 10.4 50.7 66 4.4 39.9
11:25 1012 29.88 841 24.83 10.6 51.1 63 4 39.2
11:30 1012 29.88 841 24.83 11 51.7 61 3.9 38.9
11:35 1012 29.88 841 24.83 11 51.7 61 3.9 39
11:40 1012 29.88 841 24.83 11.1 51.9 61 4 39.2
11:45 1012 29.88 841 24.83 10.9 51.5 64 4.3 39.8
11:50 1012 29.88 841 24.83 11.1 52 58 3.2 37.7
11:55 1012 29.88 841 24.83 11.6 52.9 59 3.9 39.1
12:00 1012 29.88 841 24.83 11.6 52.8 58 3.6 38.5
12:05 1012 29.88 841 24.83 12.1 53.7 56 3.7 38.7
12:10 1012 29.88 841 24.83 12 53.6 57 3.7 38.7
12:15 1012 29.88 841 24.83 11.9 53.5 55 3.2 37.8
12:20 1012 29.88 841 24.83 12.1 53.8 53 3 37.3
12:25 1012 29.88 841 24.83 12.8 55 52 3.3 37.9
12:30 1012 29.88 841 24.83 12.5 54.6 52 3.1 37.6
12:35 1012 29.88 841 24.83 12.4 54.2 54 3.5 38.3
12:40 1012 29.88 841 24.83 12.4 54.3 51 2.7 36.8
12:45 1012 29.88 841 24.83 12.2 54 53 3 37.4
12:50 1012 29.88 841 24.83 11.7 53 55 3 37.5
12:55 1012 29.88 841 24.83 11.3 52.4 55 2.6 36.8
13:00 1012 29.88 841 24.83 11.6 52.9 54 2.7 36.8
13:05 1012 29.88 841 24.83 11.9 53.5 53 2.7 36.8
13:10 1012 29.88 841 24.83 12 53.5 51 2.3 36.1
13:15 1012 29.88 841 24.83 12 53.6 52 2.6 36.6
13:20 1011 29.85 841 24.83 12 53.6 55 3.3 38
13:25 1012 29.88 841 24.83 11.2 52.2 59 3.5 38.2
13:30 1012 29.88 841 24.83 10.4 50.7 68 4.8 40.6
13:35 1012 29.88 841 24.83 8.8 47.9 75 4.7 40.4
13:40 1012 29.88 841 24.83 8.3 46.9 78 4.7 40.4
13:45 1012 29.88 841 24.83 8.5 47.3 75 4.3 39.8
13:50 1012 29.88 841 24.83 9.2 48.6 72 4.5 40.1
13:55 1012 29.88 841 24.83 9.6 49.3 73 5 40.9
14:00 1012 29.88 841 24.83 9.6 49.3 76 5.6 42
14:05 1011 29.85 841 24.83 10.6 51.1 75 6.4 43.5
14:10 1011 29.85 841 24.83 11.7 53.1 64 5.1 41.2
14:15 1011 29.85 841 24.83 11.3 52.3 62 4.4 39.9
14:20 1011 29.85 841 24.83 11.4 52.5 60 4 39.2
14:25 1011 29.85 841 24.83 12.2 53.9 59 4.5 40.1
14:30 1011 29.85 841 24.83 12.8 55.1 63 6.1 42.9
14:35 1011 29.85 841 24.83 13.3 55.9 59 5.5 42
14:40 1011 29.85 841 24.83 12.8 55.1 57 4.6 40.3
14:45 1011 29.85 840 24.81 13 55.3 52 3.5 38.2
14:50 1011 29.85 840 24.81 13.2 55.7 50 3 37.3
14:55 1011 29.85 840 24.81 12.9 55.1 53 3.5 38.4
15:00 1011 29.85 841 24.83 12.8 55 54 3.7 38.6
15:05 1011 29.85 841 24.83 12.7 54.9 52 3.2 37.7
15:10 1011 29.85 840 24.81 12.3 54.1 55 3.6 38.5
15:15 1011 29.85 840 24.81 12.5 54.6 53 3.2 37.8
15:20 1011 29.85 840 24.81 13 55.3 51 3.1 37.6
15:25 1011 29.85 840 24.81 13.2 55.7 47 2.1 35.8
15:30 1011 29.85 840 24.81 13 55.4 46 1.8 35.2
15:35 1011 29.85 840 24.81 13.3 56 43 1.1 33.9
15:40 1011 29.85 840 24.81 14.9 58.7 41 1.7 35
15:45 1011 29.85 840 24.81 14.9 58.7 40 1.4 34.5
15:50 1011 29.85 840 24.81 14.8 58.7 41 1.9 35.5
15:55 1011 29.85 840 24.81 14.3 57.7 41 1.2 34.1
16:00 1011 29.85 840 24.81 14.7 58.5 32 -1.5 29.2
16:05 1011 29.85 840 24.81 14.8 58.7 30 -2.4 27.6
16:10 1011 29.85 840 24.81 14.5 58.1 28 -3.8 25.2
16:15 1011 29.85 840 24.81 14.1 57.4 27 -4.8 23.4
16:20 1011 29.85 840 24.81 14 57.1 27 -4.7 23.5
16:25 1011 29.85 840 24.81 14.5 58.1 27 -4.5 24
16:30 1011 29.85 840 24.81 15 58.9 25 -4.7 23.5
16:35 1011 29.85 841 24.83 15 59 26 -4.4 24.1
16:40 1011 29.85 841 24.83 14.7 58.4 26 -4.7 23.5
16:45 1011 29.85 841 24.83 14.1 57.3 28 -4 24.7
16:50 1011 29.85 841 24.83 13.9 57.1 27 -4.7 23.6
16:55 1012 29.88 841 24.83 14.1 57.4 27 -4.8 23.4
17:00 1012 29.88 841 24.83 14.4 57.8 26 -4.7 23.5
17:05 1012 29.88 841 24.83 14.6 58.3 26 -4.5 24
17:10 1012 29.88 841 24.83 14.1 57.3 25 -5.6 21.9
17:15 1012 29.88 841 24.83 13.8 56.8 26 -5.5 22.2
17:20 1012 29.88 841 24.83 13.7 56.6 25 -5.8 21.6
17:25 1012 29.88 841 24.83 13.9 57.1 25 -5.8 21.5
17:30 1012 29.88 841 24.83 14.5 58.2 25 -5.1 22.8
17:35 1012 29.88 841 24.83 14.6 58.3 25 -4.9 23.1
17:40 1012 29.88 841 24.83 14.6 58.3 26 -4.5 23.8
17:45 1012 29.88 841 24.83 14 57.3 27 -4.4 24
17:50 1012 29.88 841 24.83 13.6 56.5 28 -4.6 23.6
17:55 1012 29.88 841 24.83 13.4 56.2 28 -4.8 23.4
18:00 1012 29.88 841 24.83 13.5 56.4 27 -4.9 23.2
18:05 1012 29.88 841 24.83 14 57.1 27 -4.4 24
18:10 1012 29.88 841 24.83 13.9 57.1 27 -4.7 23.6
18:15 1012 29.88 841 24.83 13.9 56.9 26 -5.2 22.6
18:20 1012 29.88 841 24.83 13.4 56.2 27 -5 23
18:25 1012 29.88 841 24.83 12.9 55.2 30 -4.3 24.3
18:30 1012 29.88 841 24.83 12.5 54.5 33 -3.3 26
18:35 1012 29.88 841 24.83 12.1 53.7 35 -2.9 26.8
18:40 1012 29.88 842 24.86 12 53.6 36 -2.6 27.2
18:45 1012 29.88 842 24.86 11.7 53.1 37 -2.6 27.4
18:50 1013 29.91 842 24.86 11.5 52.7 38 -2.4 27.6
18:55 1013 29.91 842 24.86 11.3 52.4 39 -2.2 28.1
19:00 1013 29.91 842 24.86 11.2 52.2 39 -2.2 28.1
19:05 1013 29.91 842 24.86 11.1 52 39 -2.3 27.8
19:10 1013 29.91 842 24.86 10.9 51.7 39 -2.6 27.4
19:15 1013 29.91 842 24.86 10.8 51.5 38 -2.8 27
19:20 1013 29.91 842 24.86 10.7 51.2 38 -3.2 26.3
19:25 1013 29.91 842 24.86 10.7 51.2 36 -3.8 25.1
19:30 1013 29.91 842 24.86 10.6 51 35 -4 24.7
19:35 1013 29.91 843 24.89 10.5 51 36 -4 24.8
19:40 1013 29.91 843 24.89 10.5 50.8 36 -4.1 24.7
19:45 1013 29.91 843 24.89 10.4 50.6 36 -4.1 24.7
19:50 1013 29.91 843 24.89 10.2 50.4 36 -4.1 24.7
19:55 1013 29.91 843 24.89 10.1 50.1 36 -4.3 24.3
20:00 1013 29.91 843 24.89 10 49.9 36 -4.2 24.4
20:05 1014 29.94 843 24.89 9.8 49.7 36 -4.5 24
20:10 1014 29.94 843 24.89 9.8 49.6 37 -4.2 24.5
20:15 1014 29.94 843 24.89 9.7 49.4 37 -4.2 24.5
20:20 1014 29.94 843 24.89 9.6 49.3 37 -4.3 24.3
20:25 1014 29.94 843 24.89 9.6 49.2 37 -4.5 24
20:30 1014 29.94 843 24.89 9.5 49.1 38 -4.1 24.7
20:35 1014 29.94 843 24.89 9.4 48.9 38 -4.3 24.2
20:40 1014 29.94 843 24.89 9.3 48.7 40 -3.5 25.6
20:45 1014 29.94 843 24.89 8.9 48 41 -3.6 25.5
20:50 1014 29.94 843 24.89 8.6 47.5 43 -3.2 26.3
20:55 1014 29.94 843 24.89 8.5 47.4 43 -3.2 26.2
21:00 1014 29.94 843 24.89 8.5 47.4 40 -4.2 24.5
21:05 1014 29.94 843 24.89 8.7 47.6 41 -3.7 25.4
21:10 1014 29.94 843 24.89 8.9 48.1 39 -4.1 24.5
21:15 1014 29.94 843 24.89 9 48.3 40 -3.8 25.2
21:20 1014 29.94 843 24.89 9 48.2 39 -4.2 24.4
21:25 1014 29.94 844 24.92 9.1 48.3 40 -3.9 25
21:30 1014 29.94 844 24.92 9.1 48.4 41 -3.6 25.6
21:35 1014 29.94 844 24.92 9.1 48.4 39 -4.1 24.6
21:40 1014 29.94 844 24.92 9.1 48.5 40 -3.8 25.1
21:45 1014 29.94 844 24.92 9.2 48.5 37 -4.6 23.6
21:50 1014 29.94 844 24.92 9.2 48.5 44 -2.5 27.5
21:55 1014 29.94 844 24.92 8.8 47.9 50 -1 30.2
22:00 1014 29.94 844 24.92 8.1 46.6 51 -1.5 29.3
22:05 1014 29.94 844 24.92 7.8 46 50 -2 28.5
22:10 1014 29.94 844 24.92 7.6 45.7 50 -2.3 27.9
22:15 1014 29.94 844 24.92 7.5 45.6 49 -2.3 27.8
22:20 1015 29.97 844 24.92 7.6 45.6 49 -2.5 27.5
22:25 1015 29.97 844 24.92 7.7 45.9 47 -2.7 27.1
22:30 1015 29.97 844 24.92 7.9 46.2 48 -2.5 27.5
22:35 1015 29.97 844 24.92 8 46.3 47 -2.7 27.2
22:40 1015 29.97 844 24.92 8 46.4 45 -3.2 26.3
22:45 1015 29.97 844 24.92 8 46.4 45 -3.2 26.2
22:50 1015 29.97 844 24.92 7.9 46.3 47 -2.7 27.2
22:55 1015 29.97 844 24.92 7.7 45.8 50 -2 28.4
23:00 1015 29.97 844 24.92 7.3 45.1 51 -2.2 28
23:05 1015 29.97 844 24.92 7.2 45 48 -3 26.7
23:10 1015 29.97 844 24.92 7.3 45.2 49 -2.6 27.3
23:15 1015 29.97 844 24.92 7.5 45.5 45 -3.8 25.2
23:20 1015 29.97 844 24.92 7.7 45.8 47 -2.8 27
23:25 1015 29.97 844 24.92 7.3 45.2 51 -2.2 28
23:30 1015 29.97 844 24.92 7.1 44.8 52 -1.9 28.5
23:35 1015 29.97 844 24.92 7 44.6 53 -2 28.4
23:40 1015 29.97 844 24.92 7.1 44.8 53 -1.9 28.6
23:45 1015 29.97 844 24.92 7 44.7 47 -3.6 25.5
23:50 1015 29.97 845 24.95 7.5 45.6 49 -2.4 27.7
23:55 1015 29.97 845 24.95 7.7 45.9 49 -2.3 27.9
24:00 1015 29.97 845 24.95 7.6 45.6 52 -1.7 29